Time;durP1;ratioP1;P1;durP2;ratioP2;P2;SDS_P1;SDS_P2;PMS_P1;PMS_P2;Temp;Humidity;BMP_temperature;BMP_pressure;BME280_temperature;BME280_humidity;BME280_pressure;Samples;Min_cycle;Max_cycle;Signal;HPM_P1;HPM_P2
2023/06/01 00:01:48;;;;;;;12.30;5.30;;;12.50;99.90;;;;;;4994427;28;20115;-34
2023/06/01 00:04:13;;;;;;;13.00;5.43;;;12.50;99.90;;;;;;4992248;28;20050;-33
2023/06/01 00:06:40;;;;;;;13.23;5.50;;;12.50;99.90;;;;;;4999207;28;20100;-33
2023/06/01 00:09:06;;;;;;;14.45;5.70;;;12.60;99.90;;;;;;4993239;28;20113;-33
2023/06/01 00:11:32;;;;;;;11.10;5.53;;;12.60;99.90;;;;;;4993862;28;20034;-32
2023/06/01 00:13:58;;;;;;;8.27;5.63;;;12.60;99.90;;;;;;4997711;28;20403;-36
2023/06/01 00:16:23;;;;;;;9.27;5.38;;;12.60;99.90;;;;;;5008894;28;20073;-36
2023/06/01 00:18:52;;;;;;;8.65;5.70;;;12.50;99.90;;;;;;5013923;28;20050;-34
2023/06/01 00:21:18;;;;;;;13.45;6.55;;;12.60;99.90;;;;;;5000849;28;20092;-36
2023/06/01 00:23:45;;;;;;;9.00;5.50;;;12.60;99.90;;;;;;4994066;28;20038;-36
2023/06/01 00:26:12;;;;;;;9.30;5.72;;;12.50;99.90;;;;;;4995132;28;20046;-34
2023/06/01 00:28:38;;;;;;;12.43;5.40;;;12.60;99.90;;;;;;4994092;28;20092;-35
2023/06/01 00:31:03;;;;;;;12.52;5.88;;;12.70;99.90;;;;;;4977574;28;20038;-35
2023/06/01 00:33:29;;;;;;;11.80;5.72;;;12.70;99.90;;;;;;4994541;28;20132;-35
2023/06/01 00:35:56;;;;;;;10.10;5.93;;;12.60;99.90;;;;;;5013860;28;20049;-35
2023/06/01 00:38:22;;;;;;;9.88;5.32;;;12.60;99.90;;;;;;5013366;28;20042;-34
2023/06/01 00:40:51;;;;;;;9.88;5.70;;;12.60;99.90;;;;;;5013612;28;20046;-34
2023/06/01 00:43:18;;;;;;;11.07;5.95;;;12.50;99.90;;;;;;5010645;28;20049;-34
2023/06/01 00:45:43;;;;;;;9.95;5.40;;;12.50;99.90;;;;;;4993588;28;20050;-34
2023/06/01 00:48:10;;;;;;;12.48;6.00;;;12.50;99.90;;;;;;4993725;28;20042;-36
2023/06/01 00:50:36;;;;;;;9.82;5.32;;;12.60;99.90;;;;;;4993524;28;20042;-35
2023/06/01 00:53:05;;;;;;;10.85;5.68;;;12.60;99.90;;;;;;4993640;28;20045;-34
2023/06/01 00:55:31;;;;;;;12.75;5.68;;;12.50;99.90;;;;;;4993240;28;20084;-34
2023/06/01 00:57:57;;;;;;;10.48;5.60;;;12.50;99.90;;;;;;5011822;28;20069;-35
2023/06/01 01:00:26;;;;;;;12.07;6.20;;;12.50;99.90;;;;;;5013041;28;20115;-34
2023/06/01 01:02:52;;;;;;;12.98;5.78;;;12.50;99.90;;;;;;5008185;28;20042;-34
2023/06/01 01:05:19;;;;;;;9.65;6.32;;;12.40;99.90;;;;;;4993193;28;20053;-34
2023/06/01 01:08:15;;;;;;;15.32;6.75;;;12.40;99.90;;;;;;5008168;28;20490;-34
2023/06/01 01:10:52;;;;;;;11.73;6.05;;;12.50;99.90;;;;;;5001475;28;20096;-34
2023/06/01 01:13:37;;;;;;;9.82;6.07;;;12.50;99.90;;;;;;4990123;28;20388;-36
2023/06/01 01:16:24;;;;;;;10.27;5.53;;;12.50;99.90;;;;;;4991532;28;20043;-34
2023/06/01 01:18:58;;;;;;;10.90;6.50;;;12.50;99.90;;;;;;4992727;28;20034;-38
2023/06/01 01:21:31;;;;;;;14.32;7.32;;;12.30;99.90;;;;;;4976685;28;20050;-34
2023/06/01 01:24:16;;;;;;;15.65;7.10;;;12.40;99.90;;;;;;4992965;28;20039;-35
2023/06/01 01:27:03;;;;;;;11.43;7.13;;;12.40;99.90;;;;;;5006283;28;20042;-35
2023/06/01 01:29:32;;;;;;;12.52;7.95;;;12.40;99.90;;;;;;5009145;28;20399;-34
2023/06/01 01:32:00;;;;;;;10.63;6.30;;;12.40;99.90;;;;;;5009350;28;20507;-36
2023/06/01 01:34:28;;;;;;;11.15;6.57;;;12.30;99.90;;;;;;5000617;28;20475;-34
2023/06/01 01:36:55;;;;;;;12.23;7.00;;;12.30;99.90;;;;;;4992858;28;20047;-35
2023/06/01 01:39:20;;;;;;;12.70;6.07;;;12.20;99.90;;;;;;4992701;28;20108;-35
2023/06/01 01:41:46;;;;;;;13.32;5.95;;;12.20;99.90;;;;;;5005226;28;20483;-34
2023/06/01 01:44:14;;;;;;;13.63;6.00;;;12.30;99.90;;;;;;4993189;28;20042;-35
2023/06/01 01:47:06;;;;;;;12.68;6.40;;;12.30;99.90;;;;;;4994032;28;20042;-34
2023/06/01 01:49:56;;;;;;;14.18;6.20;;;12.20;99.90;;;;;;4973001;28;20069;-34
2023/06/01 01:52:31;;;;;;;15.35;6.82;;;12.20;99.90;;;;;;4973445;28;20558;-35
2023/06/01 01:55:00;;;;;;;12.20;5.95;;;12.20;99.90;;;;;;4957189;28;20420;-35
2023/06/01 01:57:27;;;;;;;14.85;6.13;;;12.20;99.90;;;;;;4972894;28;20039;-35
2023/06/01 01:59:53;;;;;;;10.52;6.47;;;12.20;99.90;;;;;;4980013;28;20455;-35
2023/06/01 02:02:19;;;;;;;13.57;7.18;;;12.20;99.90;;;;;;4992431;28;20042;-35
2023/06/01 02:04:48;;;;;;;10.13;6.25;;;12.20;99.90;;;;;;4991976;28;20084;-35
2023/06/01 02:07:14;;;;;;;13.45;6.72;;;12.20;99.90;;;;;;4991904;28;20045;-34
2023/06/01 02:09:40;;;;;;;11.13;6.32;;;12.20;99.90;;;;;;4991838;28;20043;-36
2023/06/01 02:12:06;;;;;;;13.13;5.90;;;12.20;99.90;;;;;;4992083;28;20125;-34
2023/06/01 02:14:33;;;;;;;11.15;5.82;;;12.10;99.90;;;;;;5008070;28;20038;-35
2023/06/01 02:17:00;;;;;;;11.20;6.25;;;12.00;99.90;;;;;;5002374;28;20037;-34
2023/06/01 02:19:26;;;;;;;9.45;6.20;;;12.00;99.90;;;;;;5008242;28;20053;-34
2023/06/01 02:21:52;;;;;;;9.23;6.32;;;12.00;99.90;;;;;;4992737;28;20404;-34
2023/06/01 02:24:18;;;;;;;7.70;5.60;;;11.90;99.90;;;;;;4991912;28;20034;-34
2023/06/01 02:26:47;;;;;;;12.15;6.50;;;11.90;99.90;;;;;;4991393;28;20047;-35
2023/06/01 02:29:13;;;;;;;11.68;6.38;;;11.90;99.90;;;;;;5005772;28;20046;-34
2023/06/01 02:31:39;;;;;;;12.57;6.03;;;12.00;99.90;;;;;;5006909;28;20065;-34
2023/06/01 02:34:05;;;;;;;11.38;5.97;;;11.90;99.90;;;;;;4991709;28;20121;-34
2023/06/01 02:36:31;;;;;;;10.10;6.40;;;11.90;99.90;;;;;;4991415;28;20490;-34
2023/06/01 02:38:58;;;;;;;9.70;5.63;;;11.90;99.90;;;;;;4991480;28;20048;-34
2023/06/01 02:41:24;;;;;;;13.27;6.40;;;11.90;99.90;;;;;;4991500;28;20129;-35
2023/06/01 02:43:50;;;;;;;13.38;5.75;;;12.00;99.90;;;;;;4991231;28;20062;-35
2023/06/01 02:46:18;;;;;;;11.40;5.97;;;11.90;99.90;;;;;;4991437;28;20105;-36
2023/06/01 02:48:44;;;;;;;7.57;5.43;;;12.00;99.90;;;;;;4991452;28;20558;-39
2023/06/01 02:51:10;;;;;;;10.35;6.07;;;12.00;99.90;;;;;;4991174;28;20034;-36
2023/06/01 02:53:36;;;;;;;10.35;6.10;;;12.00;99.90;;;;;;4991164;28;20034;-34
2023/06/01 02:56:02;;;;;;;11.88;5.70;;;12.00;99.90;;;;;;4990956;28;20046;-35
2023/06/01 02:58:29;;;;;;;10.55;5.55;;;11.90;99.90;;;;;;4993100;28;20052;-34
2023/06/01 03:00:58;;;;;;;10.43;6.43;;;11.90;99.90;;;;;;5010360;28;20044;-38
2023/06/01 03:03:27;;;;;;;10.88;5.68;;;12.00;99.90;;;;;;5010813;28;20100;-34
2023/06/01 03:05:53;;;;;;;10.63;6.03;;;11.90;99.90;;;;;;4995412;28;20220;-37
2023/06/01 03:08:19;;;;;;;14.48;5.72;;;11.90;99.90;;;;;;4991092;28;20038;-35
2023/06/01 03:10:45;;;;;;;12.02;6.13;;;11.90;99.90;;;;;;4996473;28;20059;-34
2023/06/01 03:13:12;;;;;;;10.00;5.85;;;11.90;99.90;;;;;;5010856;28;20030;-38
2023/06/01 03:15:37;;;;;;;12.98;6.55;;;11.90;99.90;;;;;;5011136;28;20399;-36
2023/06/01 03:18:05;;;;;;;10.95;6.68;;;11.90;99.90;;;;;;5010539;28;20076;-36
2023/06/01 03:20:31;;;;;;;11.23;6.68;;;11.90;99.90;;;;;;5011129;28;20044;-34
2023/06/01 03:22:59;;;;;;;12.57;6.93;;;11.80;99.90;;;;;;5009556;28;20121;-35
2023/06/01 03:25:25;;;;;;;7.72;5.65;;;11.80;99.90;;;;;;4989305;28;20556;-37
2023/06/01 03:27:51;;;;;;;8.48;5.80;;;11.80;99.90;;;;;;4990044;28;20122;-33
2023/06/01 03:30:21;;;;;;;13.77;6.57;;;11.90;99.90;;;;;;4979400;28;20495;-34
2023/06/01 03:32:47;;;;;;;13.50;6.45;;;11.90;99.90;;;;;;4994752;28;20034;-35
2023/06/01 03:35:13;;;;;;;12.63;6.85;;;11.90;99.90;;;;;;4973253;28;20046;-33
2023/06/01 03:37:41;;;;;;;11.35;5.68;;;11.90;99.90;;;;;;4983398;28;20042;-34
2023/06/01 03:40:11;;;;;;;10.43;5.82;;;11.80;99.90;;;;;;4985310;28;20556;-34
2023/06/01 03:42:41;;;;;;;9.63;5.88;;;11.80;99.90;;;;;;4993186;28;20043;-34
2023/06/01 03:45:09;;;;;;;14.43;6.50;;;11.80;99.90;;;;;;4993591;28;20038;-33
2023/06/01 03:47:35;;;;;;;10.63;6.22;;;11.80;99.90;;;;;;4994428;28;20034;-36
2023/06/01 03:50:01;;;;;;;12.88;6.68;;;11.90;99.90;;;;;;4994541;28;20443;-36
2023/06/01 03:52:30;;;;;;;11.13;6.07;;;11.90;99.90;;;;;;4994335;28;20030;-36
2023/06/01 03:55:01;;;;;;;9.40;5.63;;;11.80;99.90;;;;;;4995328;28;20368;-36
2023/06/01 03:57:26;;;;;;;9.40;5.85;;;11.80;99.90;;;;;;5001169;28;20502;-38
2023/06/01 03:59:52;;;;;;;10.68;6.30;;;11.90;99.90;;;;;;4993762;28;20070;-36
2023/06/01 04:02:19;;;;;;;10.40;5.65;;;11.90;99.90;;;;;;5010343;28;20410;-38
2023/06/01 04:04:45;;;;;;;8.02;5.68;;;11.80;99.90;;;;;;4996781;28;20448;-38
2023/06/01 04:07:14;;;;;;;11.23;5.88;;;11.80;99.90;;;;;;5000152;28;20038;-35
2023/06/01 04:09:40;;;;;;;9.82;5.85;;;11.90;99.90;;;;;;4988447;28;20043;-38
2023/06/01 04:12:06;;;;;;;10.80;5.35;;;11.90;99.90;;;;;;4993153;28;20138;-39
2023/06/01 04:14:32;;;;;;;13.25;6.07;;;11.90;99.90;;;;;;4993413;28;20125;-40
2023/06/01 04:16:58;;;;;;;8.25;5.78;;;11.90;99.90;;;;;;4993254;28;20435;-37
2023/06/01 04:19:23;;;;;;;14.13;6.05;;;11.90;99.90;;;;;;4993438;28;20034;-41
2023/06/01 04:21:49;;;;;;;11.05;6.00;;;11.90;99.90;;;;;;4999656;28;20037;-33
2023/06/01 04:24:15;;;;;;;9.20;6.00;;;11.90;99.90;;;;;;5010358;28;20042;-34
2023/06/01 04:26:41;;;;;;;9.52;5.80;;;11.90;99.90;;;;;;4999532;28;20065;-33
2023/06/01 04:29:11;;;;;;;9.85;5.82;;;11.90;99.90;;;;;;5007300;28;20069;-34
2023/06/01 04:31:38;;;;;;;13.45;5.95;;;11.90;99.90;;;;;;5001805;28;20038;-33
2023/06/01 04:34:05;;;;;;;11.35;6.32;;;12.00;99.90;;;;;;4998945;28;20044;-33
2023/06/01 04:36:37;;;;;;;13.10;5.80;;;12.00;99.90;;;;;;5000491;28;20073;-35
2023/06/01 04:39:04;;;;;;;10.23;6.55;;;12.10;99.90;;;;;;4993302;28;20049;-35
2023/06/01 04:41:32;;;;;;;12.35;6.35;;;12.00;99.90;;;;;;4993151;28;20057;-34
2023/06/01 04:43:58;;;;;;;8.82;5.72;;;12.10;99.90;;;;;;4992893;28;20101;-35
2023/06/01 04:46:25;;;;;;;10.98;5.97;;;12.20;99.90;;;;;;4998918;28;20514;-35
2023/06/01 04:48:52;;;;;;;10.48;6.22;;;12.20;99.90;;;;;;4994970;28;20038;-34
2023/06/01 04:51:19;;;;;;;10.70;5.45;;;12.10;99.90;;;;;;5002307;28;20038;-33
2023/06/01 04:53:51;;;;;;;7.88;5.40;;;12.10;99.90;;;;;;4993978;28;20100;-35
2023/06/01 04:56:24;;;;;;;8.55;5.03;;;12.20;99.90;;;;;;4991786;28;20117;-35
2023/06/01 04:58:51;;;;;;;8.35;5.35;;;12.10;99.90;;;;;;4989190;28;20083;-34
2023/06/01 05:01:17;;;;;;;7.63;5.15;;;12.10;99.90;;;;;;4991352;28;20050;-34
2023/06/01 05:03:45;;;;;;;9.15;4.53;;;12.10;99.90;;;;;;4998881;28;20551;-33
2023/06/01 05:06:12;;;;;;;8.25;4.53;;;12.20;99.90;;;;;;4992824;28;20050;-34
2023/06/01 05:08:41;;;;;;;9.25;4.68;;;12.10;99.90;;;;;;4992241;28;20092;-35
2023/06/01 05:11:08;;;;;;;9.20;4.97;;;12.20;99.90;;;;;;4993194;28;20049;-35
2023/06/01 05:13:35;;;;;;;8.45;4.75;;;12.20;99.90;;;;;;4996523;28;20062;-35
2023/06/01 05:16:02;;;;;;;9.65;4.72;;;12.20;99.90;;;;;;4998843;28;20406;-35
2023/06/01 05:18:28;;;;;;;8.07;4.93;;;12.10;99.90;;;;;;4990116;28;20038;-35
2023/06/01 05:20:53;;;;;;;8.55;4.97;;;12.30;99.90;;;;;;4996832;28;20045;-33
2023/06/01 05:23:20;;;;;;;6.93;4.30;;;12.20;99.90;;;;;;4995347;28;20046;-33
2023/06/01 05:25:46;;;;;;;8.73;4.82;;;12.20;99.90;;;;;;5002974;28;20034;-36
2023/06/01 05:28:12;;;;;;;8.93;4.40;;;12.20;99.90;;;;;;4989002;28;20042;-35
2023/06/01 05:30:37;;;;;;;8.50;4.53;;;12.30;99.90;;;;;;4977363;28;20077;-33
2023/06/01 05:33:03;;;;;;;9.65;4.80;;;12.20;99.90;;;;;;4997859;28;20045;-35
2023/06/01 05:35:29;;;;;;;8.30;4.72;;;12.30;99.90;;;;;;4992175;28;20116;-35
2023/06/01 05:37:55;;;;;;;7.07;4.28;;;12.30;99.90;;;;;;4992397;28;20387;-35
2023/06/01 05:40:21;;;;;;;10.35;4.90;;;12.40;99.90;;;;;;4992079;28;20040;-34
2023/06/01 05:42:47;;;;;;;8.18;4.95;;;12.30;99.90;;;;;;4995609;28;20040;-36
2023/06/01 05:45:13;;;;;;;10.10;5.20;;;12.30;99.90;;;;;;5007147;28;20069;-35
2023/06/01 05:47:38;;;;;;;11.23;5.18;;;12.40;99.90;;;;;;4997777;28;20034;-35
2023/06/01 05:50:05;;;;;;;10.85;4.93;;;12.50;99.90;;;;;;4990420;28;20038;-35
2023/06/01 05:52:31;;;;;;;9.00;4.75;;;12.40;99.90;;;;;;4993387;28;20031;-35
2023/06/01 05:54:57;;;;;;;10.40;5.75;;;12.60;99.90;;;;;;4994054;28;20649;-37
2023/06/01 05:57:23;;;;;;;11.73;5.60;;;12.50;99.90;;;;;;4996757;28;20129;-36
2023/06/01 05:59:49;;;;;;;11.85;5.32;;;12.40;99.90;;;;;;4993072;28;20045;-35
2023/06/01 06:02:15;;;;;;;11.65;5.15;;;12.50;99.90;;;;;;4990802;28;20050;-34
2023/06/01 06:04:41;;;;;;;8.02;5.15;;;12.40;99.90;;;;;;4983794;28;20459;-34
2023/06/01 06:07:07;;;;;;;9.65;5.22;;;12.50;99.90;;;;;;4992338;28;20070;-35
2023/06/01 06:09:33;;;;;;;9.90;5.00;;;12.50;99.90;;;;;;4995573;28;20046;-36
2023/06/01 06:11:59;;;;;;;9.38;4.72;;;12.50;99.90;;;;;;4996990;28;20072;-33
2023/06/01 06:14:25;;;;;;;9.30;4.47;;;12.40;99.90;;;;;;4999785;28;20057;-35
2023/06/01 06:16:51;;;;;;;6.30;4.25;;;12.40;99.90;;;;;;4991655;28;20038;-35
2023/06/01 06:19:17;;;;;;;6.20;4.70;;;12.50;99.90;;;;;;4999560;28;20049;-34
2023/06/01 06:21:42;;;;;;;6.20;3.90;;;12.40;99.90;;;;;;5001435;28;20042;-35
2023/06/01 06:24:08;;;;;;;8.02;4.65;;;12.50;99.90;;;;;;4987827;28;20038;-35
2023/06/01 06:26:35;;;;;;;9.63;4.35;;;12.50;99.90;;;;;;4993823;28;20034;-34
2023/06/01 06:29:00;;;;;;;7.78;4.30;;;12.50;99.90;;;;;;5004184;28;20073;-35
2023/06/01 06:31:26;;;;;;;9.25;4.97;;;12.50;99.90;;;;;;4992127;28;20128;-34
2023/06/01 06:33:52;;;;;;;9.20;4.93;;;12.40;99.90;;;;;;4991549;28;20034;-35
2023/06/01 06:36:18;;;;;;;8.15;4.80;;;12.50;99.90;;;;;;4990561;28;20080;-35
2023/06/01 06:38:44;;;;;;;9.10;5.22;;;12.60;99.90;;;;;;4993138;28;20065;-35
2023/06/01 06:41:10;;;;;;;8.45;4.85;;;12.60;99.90;;;;;;4991018;28;21187;-34
2023/06/01 06:43:36;;;;;;;7.50;5.25;;;12.80;99.90;;;;;;4991582;28;20041;-35
2023/06/01 06:46:02;;;;;;;7.85;4.78;;;12.60;99.90;;;;;;4994243;28;20038;-35
2023/06/01 06:48:28;;;;;;;7.65;4.45;;;12.80;99.90;;;;;;4984070;28;20454;-35
2023/06/01 06:50:55;;;;;;;9.27;4.43;;;12.80;99.90;;;;;;4995195;28;20487;-35
2023/06/01 06:53:20;;;;;;;7.82;4.20;;;12.80;99.90;;;;;;4988651;28;20458;-35
2023/06/01 06:55:46;;;;;;;5.57;4.35;;;12.90;99.90;;;;;;4991026;28;20034;-35
2023/06/01 06:58:13;;;;;;;7.47;5.00;;;13.00;99.90;;;;;;4989344;28;20133;-38
2023/06/01 07:00:43;;;;;;;12.30;4.78;;;13.00;99.90;;;;;;4997174;28;20076;-39
2023/06/01 07:03:09;;;;;;;7.85;3.80;;;13.20;99.90;;;;;;4988992;28;20043;-40
2023/06/01 07:05:35;;;;;;;8.93;4.30;;;13.10;99.90;;;;;;4989020;28;20049;-37
2023/06/01 07:08:01;;;;;;;6.75;4.15;;;13.10;99.90;;;;;;4990318;28;20480;-36
2023/06/01 07:10:27;;;;;;;4.97;3.88;;;13.00;99.90;;;;;;4991924;28;20030;-41
2023/06/01 07:12:52;;;;;;;6.45;3.63;;;13.10;99.90;;;;;;4994390;28;20038;-37
2023/06/01 07:15:18;;;;;;;6.28;3.80;;;13.10;99.90;;;;;;4994182;28;20128;-37
2023/06/01 07:17:44;;;;;;;5.03;4.03;;;13.20;99.90;;;;;;5001817;28;20087;-39
2023/06/01 07:20:11;;;;;;;6.25;3.70;;;13.20;99.90;;;;;;4993870;28;20042;-37
2023/06/01 07:22:38;;;;;;;6.40;3.75;;;13.10;99.90;;;;;;4992710;28;20488;-36
2023/06/01 07:25:05;;;;;;;6.82;4.00;;;13.20;99.90;;;;;;5002999;28;20048;-33
2023/06/01 07:27:31;;;;;;;4.53;3.22;;;13.10;99.90;;;;;;4996308;28;20117;-33
2023/06/01 07:29:57;;;;;;;6.28;3.50;;;13.20;99.90;;;;;;4992962;28;20619;-33
2023/06/01 07:32:25;;;;;;;5.10;3.08;;;13.30;99.90;;;;;;4992679;28;21328;-33
2023/06/01 07:34:51;;;;;;;7.38;3.47;;;13.50;99.90;;;;;;4992668;28;20034;-33
2023/06/01 07:37:21;;;;;;;5.97;3.60;;;13.40;99.90;;;;;;4992804;28;20069;-33
2023/06/01 07:39:49;;;;;;;4.75;3.20;;;13.50;99.90;;;;;;4989554;28;20035;-34
2023/06/01 07:42:15;;;;;;;5.63;4.10;;;13.40;99.90;;;;;;4997074;28;20042;-33
2023/06/01 07:44:41;;;;;;;7.60;3.53;;;13.40;99.90;;;;;;4995125;28;20156;-33
2023/06/01 07:47:07;;;;;;;6.25;3.22;;;13.60;99.90;;;;;;5007022;28;20126;-33
2023/06/01 07:49:35;;;;;;;5.97;3.67;;;13.40;99.90;;;;;;4994135;28;20034;-33
2023/06/01 07:52:02;;;;;;;7.93;3.80;;;13.40;99.90;;;;;;4995057;28;20034;-33
2023/06/01 07:54:32;;;;;;;5.60;3.30;;;13.50;99.90;;;;;;4986914;28;20394;-33
2023/06/01 07:56:58;;;;;;;6.03;3.60;;;13.50;99.90;;;;;;5006067;28;20644;-33
2023/06/01 07:59:24;;;;;;;7.88;3.78;;;13.50;99.90;;;;;;4993660;28;20046;-31
2023/06/01 08:01:51;;;;;;;7.10;4.07;;;13.70;99.90;;;;;;4994416;28;20065;-34
2023/06/01 08:04:20;;;;;;;7.47;4.90;;;13.60;99.90;;;;;;4977754;28;20046;-33
2023/06/01 08:06:47;;;;;;;4.90;3.67;;;13.60;99.90;;;;;;4994044;28;20101;-33
2023/06/01 08:09:12;;;;;;;6.32;3.10;;;13.70;99.90;;;;;;4993398;28;20038;-34
2023/06/01 08:11:38;;;;;;;5.50;3.22;;;13.60;99.90;;;;;;5003828;28;20114;-33
2023/06/01 08:14:07;;;;;;;4.65;3.28;;;13.60;99.90;;;;;;5001066;28;20031;-33
2023/06/01 08:16:33;;;;;;;8.93;3.25;;;13.70;99.90;;;;;;4990759;28;20038;-33
2023/06/01 08:18:59;;;;;;;6.25;3.00;;;13.70;99.90;;;;;;4996550;28;20110;-32
2023/06/01 08:21:25;;;;;;;6.20;2.92;;;13.80;99.90;;;;;;4993954;28;20113;-33
2023/06/01 08:23:55;;;;;;;7.60;3.05;;;14.10;99.90;;;;;;4993344;28;20088;-33
2023/06/01 08:26:25;;;;;;;5.88;2.90;;;14.10;99.90;;;;;;4977499;28;20053;-33
2023/06/01 08:28:51;;;;;;;3.33;2.65;;;14.20;99.90;;;;;;4993539;28;20031;-32
2023/06/01 08:31:19;;;;;;;5.68;2.88;;;14.40;99.90;;;;;;5009675;28;20553;-33
2023/06/01 08:33:45;;;;;;;5.68;2.97;;;14.40;99.90;;;;;;5001945;28;20044;-33
2023/06/01 08:36:11;;;;;;;5.25;2.95;;;14.70;99.90;;;;;;4992699;28;20130;-33
2023/06/01 08:38:37;;;;;;;4.93;2.50;;;14.70;99.90;;;;;;4987105;28;20121;-33
2023/06/01 08:41:10;;;;;;;5.25;2.92;;;14.70;99.90;;;;;;4988074;28;20030;-33
2023/06/01 08:43:40;;;;;;;5.43;3.33;;;14.70;99.90;;;;;;4993445;28;20038;-32
2023/06/01 08:46:06;;;;;;;4.60;3.55;;;14.80;99.90;;;;;;4992872;28;20081;-33
2023/06/01 08:48:33;;;;;;;5.78;3.45;;;14.90;99.90;;;;;;4994497;28;20463;-34
2023/06/01 08:51:00;;;;;;;7.70;4.15;;;14.90;99.90;;;;;;4980310;28;20042;-33
2023/06/01 08:53:28;;;;;;;4.78;3.38;;;14.60;99.90;;;;;;4992911;28;20109;-34
2023/06/01 08:55:56;;;;;;;6.25;3.30;;;14.90;99.90;;;;;;4989688;28;20520;-33
2023/06/01 08:58:22;;;;;;;6.53;3.55;;;15.00;99.90;;;;;;4994496;28;20047;-33
2023/06/01 09:00:53;;;;;;;4.47;3.42;;;15.00;99.90;;;;;;4996482;28;20063;-33
2023/06/01 09:03:19;;;;;;;6.40;3.53;;;15.10;99.90;;;;;;4992575;28;20847;-33
2023/06/01 09:05:45;;;;;;;5.50;3.17;;;15.20;99.90;;;;;;4994799;28;20121;-33
2023/06/01 09:08:13;;;;;;;6.20;2.95;;;15.00;99.90;;;;;;4991785;28;20121;-33
2023/06/01 09:10:39;;;;;;;3.72;2.53;;;15.00;99.90;;;;;;4993540;28;20046;-35
2023/06/01 09:13:05;;;;;;;2.45;1.88;;;15.10;99.90;;;;;;4992421;28;20034;-33
2023/06/01 09:15:32;;;;;;;2.53;1.90;;;15.10;99.90;;;;;;4999275;28;20035;-33
2023/06/01 09:18:13;;;;;;;4.78;1.90;;;15.20;99.90;;;;;;4994539;28;20074;-33
2023/06/01 09:20:40;;;;;;;3.25;1.67;;;15.20;99.90;;;;;;4991264;28;20042;-33
2023/06/01 09:23:06;;;;;;;8.75;2.45;;;15.30;99.90;;;;;;4996508;28;20049;-33
2023/06/01 09:25:33;;;;;;;4.45;2.33;;;15.50;99.90;;;;;;4992058;28;20034;-33
2023/06/01 09:28:01;;;;;;;5.43;2.53;;;15.50;99.90;;;;;;4994924;28;20391;-33
2023/06/01 09:30:40;;;;;;;3.70;2.40;;;15.50;99.90;;;;;;4989643;28;20395;-33
2023/06/01 09:33:14;;;;;;;4.57;2.40;;;15.60;99.90;;;;;;4993729;28;20824;-33
2023/06/01 09:35:45;;;;;;;4.18;2.38;;;15.70;99.90;;;;;;4992188;28;20038;-33
2023/06/01 09:38:19;;;;;;;5.13;2.45;;;15.80;99.90;;;;;;4993064;28;20438;-33
2023/06/01 09:41:00;;;;;;;3.42;2.33;;;15.70;99.90;;;;;;4992243;28;20078;-34
2023/06/01 09:43:26;;;;;;;4.45;2.60;;;15.90;99.90;;;;;;4992147;28;20045;-36
2023/06/01 09:46:08;;;;;;;4.82;2.58;;;15.80;99.90;;;;;;4992680;28;20034;-38
2023/06/01 09:48:35;;;;;;;4.78;2.33;;;15.90;99.90;;;;;;4994090;28;20042;-36
2023/06/01 09:51:01;;;;;;;3.72;2.20;;;16.00;99.90;;;;;;4992214;28;20109;-37
2023/06/01 09:53:27;;;;;;;2.70;2.00;;;16.00;99.90;;;;;;5001284;28;20492;-37
2023/06/01 09:55:58;;;;;;;2.45;1.80;;;16.10;99.90;;;;;;4987511;28;20117;-35
2023/06/01 09:58:24;;;;;;;4.07;2.10;;;16.00;99.90;;;;;;4991481;28;20046;-36
2023/06/01 10:00:51;;;;;;;2.35;1.95;;;15.90;99.90;;;;;;4991558;28;20049;-37
2023/06/01 10:03:18;;;;;;;4.15;2.30;;;15.90;99.90;;;;;;4989884;28;20129;-36
2023/06/01 10:05:45;;;;;;;6.20;2.40;;;16.00;99.90;;;;;;4994675;28;20050;-38
2023/06/01 10:08:13;;;;;;;4.18;2.30;;;15.90;99.90;;;;;;4991654;28;20042;-37
2023/06/01 10:10:41;;;;;;;6.43;2.28;;;15.80;99.90;;;;;;4993101;28;20121;-37
2023/06/01 10:13:08;;;;;;;3.08;2.20;;;15.90;99.90;;;;;;4975721;28;20500;-36
2023/06/01 10:15:34;;;;;;;2.45;1.85;;;16.10;99.90;;;;;;4991674;28;20100;-35
2023/06/01 10:18:04;;;;;;;2.53;2.05;;;16.20;99.90;;;;;;4993667;28;20034;-36
2023/06/01 10:20:35;;;;;;;3.25;2.08;;;16.20;99.90;;;;;;4991521;28;20038;-35
2023/06/01 10:23:01;;;;;;;2.67;2.05;;;16.20;99.90;;;;;;4995287;28;20566;-35
2023/06/01 10:25:32;;;;;;;2.25;1.40;;;16.20;99.90;;;;;;4994450;28;20036;-37
2023/06/01 10:28:05;;;;;;;3.58;1.90;;;16.00;99.90;;;;;;4975365;28;20049;-36
2023/06/01 10:30:30;;;;;;;3.50;1.75;;;15.90;99.90;;;;;;4981212;28;20035;-35
2023/06/01 10:32:56;;;;;;;2.10;1.90;;;15.90;99.90;;;;;;4996312;28;20124;-36
2023/06/01 10:35:32;;;;;;;2.60;1.95;;;15.90;99.90;;;;;;4993096;28;20081;-36
2023/06/01 10:38:07;;;;;;;2.83;2.00;;;15.90;99.90;;;;;;4991839;28;20538;-36
2023/06/01 10:40:36;;;;;;;6.20;2.45;;;16.10;99.90;;;;;;4991395;28;20559;-36
2023/06/01 10:43:03;;;;;;;5.15;2.95;;;16.00;99.90;;;;;;4993159;28;20034;-36
2023/06/01 10:45:39;;;;;;;5.18;2.70;;;16.10;99.90;;;;;;5001401;28;20039;-35
2023/06/01 10:48:11;;;;;;;5.07;2.67;;;16.10;99.90;;;;;;4974908;28;20128;-37
2023/06/01 10:50:41;;;;;;;5.57;3.50;;;16.20;99.90;;;;;;5001881;28;20117;-34
2023/06/01 10:53:28;;;;;;;6.25;3.20;;;16.00;99.90;;;;;;4977124;28;20057;-34
2023/06/01 10:56:23;;;;;;;5.07;3.30;;;15.90;99.90;;;;;;4992410;28;20046;-37
2023/06/01 10:59:07;;;;;;;6.30;3.92;;;16.00;99.90;;;;;;4992619;28;20089;-37
2023/06/01 11:01:38;;;;;;;9.85;4.35;;;15.90;99.90;;;;;;4993540;28;20390;-37
2023/06/01 11:04:05;;;;;;;5.57;3.70;;;16.00;99.90;;;;;;4991505;28;20038;-34
2023/06/01 11:06:40;;;;;;;6.47;3.65;;;16.10;99.90;;;;;;4990597;28;20097;-37
2023/06/01 11:09:08;;;;;;;6.18;4.05;;;16.00;99.90;;;;;;4990442;28;20038;-36
2023/06/01 11:11:52;;;;;;;6.72;3.70;;;16.00;99.90;;;;;;4987399;28;20064;-36
2023/06/01 11:14:21;;;;;;;7.22;3.40;;;16.00;99.90;;;;;;5001492;28;20164;-35
2023/06/01 11:16:47;;;;;;;8.82;3.65;;;16.00;99.90;;;;;;4995248;28;20038;-35
2023/06/01 11:19:27;;;;;;;6.32;2.97;;;16.20;99.90;;;;;;4998240;28;20034;-35
2023/06/01 11:22:04;;;;;;;5.10;3.15;;;16.20;99.90;;;;;;4993315;28;20117;-35
2023/06/01 11:24:35;;;;;;;5.60;3.13;;;16.30;99.90;;;;;;4980297;28;20047;-35
2023/06/01 11:27:09;;;;;;;5.00;2.97;;;16.40;99.90;;;;;;4992311;28;20038;-35
2023/06/01 11:29:36;;;;;;;4.40;3.47;;;16.60;99.90;;;;;;4982225;28;20042;-36
2023/06/01 11:32:05;;;;;;;4.47;2.65;;;16.50;99.90;;;;;;4993012;28;20038;-37
2023/06/01 11:34:30;;;;;;;5.28;2.92;;;16.50;99.90;;;;;;4994026;28;20057;-34
2023/06/01 11:36:58;;;;;;;7.75;3.17;;;16.50;99.90;;;;;;4992457;28;20042;-35
2023/06/01 11:39:26;;;;;;;6.00;3.20;;;16.50;99.90;;;;;;4990325;28;20054;-38
2023/06/01 11:42:10;;;;;;;7.70;3.00;;;16.40;99.90;;;;;;4991979;28;20034;-37
2023/06/01 11:44:38;;;;;;;7.45;3.47;;;16.30;99.90;;;;;;4985780;28;20573;-36
2023/06/01 11:47:05;;;;;;;10.45;3.35;;;16.30;99.90;;;;;;4994013;28;20039;-35
2023/06/01 11:49:41;;;;;;;5.03;3.28;;;16.20;99.90;;;;;;4988564;28;20481;-37
2023/06/01 11:52:09;;;;;;;6.05;3.70;;;16.30;99.90;;;;;;4988644;28;20144;-36
2023/06/01 11:54:36;;;;;;;9.95;3.38;;;16.20;99.90;;;;;;4997941;28;20169;-38
2023/06/01 11:57:03;;;;;;;8.98;3.60;;;16.40;99.90;;;;;;4995790;28;20038;-37
2023/06/01 11:59:43;;;;;;;7.57;3.95;;;16.30;99.90;;;;;;5006680;28;20034;-37
2023/06/01 12:02:26;;;;;;;6.68;3.40;;;16.30;99.90;;;;;;4998067;28;20124;-36
2023/06/01 12:04:56;;;;;;;7.47;3.50;;;16.50;99.90;;;;;;4989533;28;20408;-36
2023/06/01 12:07:23;;;;;;;5.90;3.45;;;16.50;99.90;;;;;;4994556;28;20418;-35
2023/06/01 12:09:51;;;;;;;7.05;3.50;;;16.70;99.90;;;;;;4994301;28;20117;-37
2023/06/01 12:12:18;;;;;;;5.53;2.97;;;16.70;99.90;;;;;;4993980;28;20124;-36
2023/06/01 12:14:43;;;;;;;5.85;3.10;;;16.90;99.90;;;;;;4993720;28;20107;-36
2023/06/01 12:17:12;;;;;;;7.22;3.22;;;17.00;99.90;;;;;;4993979;28;20093;-37
2023/06/01 12:19:46;;;;;;;6.80;2.70;;;17.20;99.90;;;;;;4993866;28;20039;-36
2023/06/01 12:22:12;;;;;;;6.85;3.10;;;17.30;99.90;;;;;;4995049;28;20128;-37
2023/06/01 12:24:38;;;;;;;5.38;3.10;;;17.30;99.90;;;;;;5000326;28;20042;-37
2023/06/01 12:27:19;;;;;;;6.97;2.88;;;17.30;99.90;;;;;;5012222;28;20039;-37
2023/06/01 12:29:47;;;;;;;8.48;3.22;;;17.50;99.90;;;;;;4986750;28;20476;-36
2023/06/01 12:32:17;;;;;;;6.18;2.97;;;17.80;99.90;;;;;;4993633;28;20397;-35
2023/06/01 12:34:47;;;;;;;6.40;2.85;;;17.90;99.90;;;;;;5000482;28;20046;-36
2023/06/01 12:37:20;;;;;;;6.63;3.00;;;18.00;99.90;;;;;;4978176;28;20508;-37
2023/06/01 12:39:59;;;;;;;3.50;2.45;;;18.20;99.90;;;;;;4992122;28;20480;-36
2023/06/01 12:42:39;;;;;;;5.88;3.22;;;18.30;99.90;;;;;;4992628;28;20373;-36
2023/06/01 12:45:09;;;;;;;7.68;3.78;;;18.40;99.90;;;;;;4998918;28;20096;-36
2023/06/01 12:47:40;;;;;;;6.15;3.00;;;18.70;99.90;;;;;;4995470;28;20037;-36
2023/06/01 12:50:08;;;;;;;6.38;3.58;;;18.90;99.90;;;;;;4993216;28;20496;-39